createdAt,value
2018-10-02T00:02:18.754Z,3.70
2018-10-02T00:04:47.367Z,6.67
2018-10-02T00:07:16.076Z,6.22
2018-10-02T00:09:44.813Z,4.92
2018-10-02T00:12:19.046Z,3.45
2018-10-02T00:17:41.973Z,4.67
2018-10-02T00:20:10.384Z,5.80
2018-10-02T00:22:38.994Z,5.03
2018-10-02T00:25:09.324Z,7.03
2018-10-02T00:27:38.431Z,4.70
2018-10-02T00:30:07.139Z,4.20
2018-10-02T00:32:35.683Z,7.17
2018-10-02T00:35:04.426Z,7.65
2018-10-02T00:37:34.020Z,4.22
2018-10-02T00:42:56.504Z,3.37
2018-10-02T00:45:47.439Z,3.35
2018-10-02T00:48:16.552Z,2.40
2018-10-02T00:50:45.079Z,5.10
2018-10-02T00:53:29.735Z,3.60
2018-10-02T00:55:59.255Z,5.25
2018-10-02T01:01:21.573Z,3.65
2018-10-02T01:03:49.974Z,5.30
2018-10-02T01:12:05.310Z,5.35
2018-10-02T01:14:33.798Z,3.80
2018-10-02T01:19:56.135Z,6.17
2018-10-02T01:25:18.436Z,3.85
2018-10-02T01:27:47.053Z,4.65
2018-10-02T01:33:12.823Z,5.47
2018-10-02T01:35:41.136Z,6.40
2018-10-02T01:38:09.840Z,3.55
2018-10-02T01:40:38.447Z,5.03
2018-10-02T01:43:07.446Z,6.30
2018-10-02T01:45:35.795Z,4.70
2018-10-02T01:48:04.426Z,4.37
2018-10-02T01:50:33.072Z,2.33
2018-10-02T01:53:01.641Z,2.85
2018-10-02T01:55:30.536Z,4.10
2018-10-02T01:58:15.107Z,4.42
2018-10-02T02:00:56.830Z,4.53
2018-10-02T02:03:28.443Z,3.40
2018-10-02T02:05:57.076Z,2.85
2018-10-02T02:08:26.747Z,2.95
2018-10-02T02:13:49.091Z,2.33
2018-10-02T02:16:17.801Z,3.27
2018-10-02T02:18:46.571Z,3.02
2018-10-02T02:21:14.902Z,7.55
2018-10-02T02:26:37.447Z,3.60
2018-10-02T02:29:06.077Z,3.65
2018-10-02T02:31:34.679Z,5.45
2018-10-02T02:34:17.333Z,4.58
2018-10-02T02:36:45.843Z,5.08
2018-10-02T02:42:08.258Z,5.03
2018-10-02T02:44:36.841Z,3.00
2018-10-02T02:47:10.924Z,4.97
2018-10-02T02:55:27.684Z,6.45
2018-10-02T02:57:56.012Z,3.58
2018-10-02T03:00:25.139Z,4.37
2018-10-02T03:02:53.437Z,3.60
2018-10-02T03:05:22.543Z,3.87
2018-10-02T03:07:51.828Z,3.77
2018-10-02T03:10:21.353Z,5.28
2018-10-02T03:12:50.071Z,5.42
2018-10-02T03:15:18.729Z,3.47
2018-10-02T03:17:47.478Z,4.20
2018-10-02T03:20:16.416Z,3.15
2018-10-02T03:22:45.132Z,4.30
2018-10-02T03:25:13.720Z,2.75
2018-10-02T03:27:42.368Z,6.55
2018-10-02T03:30:10.972Z,4.03
2018-10-02T03:32:39.620Z,5.53
2018-10-02T03:38:01.657Z,3.30
2018-10-02T03:40:30.762Z,5.78
2018-10-02T03:48:46.913Z,4.53
2018-10-02T03:51:15.609Z,7.03
2018-10-02T03:53:44.389Z,5.78
2018-10-02T03:56:13.021Z,8.03
2018-10-02T03:58:42.109Z,6.75
2018-10-02T04:01:10.426Z,10.80
2018-10-02T04:03:39.056Z,6.40
2018-10-02T04:06:27.912Z,8.00
2018-10-02T04:08:56.260Z,6.78
2018-10-02T04:11:31.489Z,8.00
2018-10-02T04:14:00.627Z,12.37
2018-10-02T04:16:51.476Z,11.33
2018-10-02T04:19:33.883Z,9.58
2018-10-02T04:24:56.205Z,10.40
2018-10-02T04:27:25.012Z,9.18
2018-10-02T04:29:53.737Z,9.63
2018-10-02T04:32:22.479Z,8.05
2018-10-02T04:34:54.275Z,9.13
2018-10-02T04:37:23.258Z,6.60
2018-10-02T04:42:45.016Z,12.63
2018-10-02T04:45:13.525Z,13.48
2018-10-02T04:47:42.156Z,9.28
2018-10-02T04:50:10.908Z,10.40
2018-10-02T04:52:39.784Z,8.10
2018-10-02T04:55:08.513Z,7.37
2018-10-02T04:57:37.191Z,11.43
2018-10-02T05:00:06.145Z,8.60
2018-10-02T05:02:34.575Z,10.40
2018-10-02T05:05:03.312Z,10.43
2018-10-02T05:07:32.286Z,9.75
2018-10-02T05:10:00.606Z,9.23
2018-10-02T05:12:29.444Z,7.90
2018-10-02T05:17:58.412Z,10.50
2018-10-02T05:20:27.161Z,8.40
2018-10-02T05:23:10.056Z,8.30
2018-10-02T05:25:38.503Z,5.85
2018-10-02T05:28:07.128Z,9.15
2018-10-02T05:30:39.022Z,7.50
2018-10-02T05:33:13.860Z,8.55
2018-10-02T05:35:43.003Z,8.63
2018-10-02T05:38:17.240Z,8.63
2018-10-02T05:40:45.766Z,14.63
2018-10-02T05:43:14.497Z,8.43
2018-10-02T05:45:43.213Z,9.78
2018-10-02T05:48:12.455Z,6.87
2018-10-02T05:50:40.811Z,9.83
2018-10-02T05:53:09.249Z,7.25
2018-10-02T05:55:37.920Z,8.03
2018-10-02T05:58:06.578Z,7.83
2018-10-02T06:00:47.253Z,8.10
2018-10-02T06:03:16.065Z,5.50
2018-10-02T06:05:44.360Z,4.12
2018-10-02T06:08:13.054Z,5.58
2018-10-02T06:13:35.401Z,6.20
2018-10-02T06:16:04.003Z,8.08
2018-10-02T06:18:32.871Z,5.03
2018-10-02T06:21:01.564Z,7.05
2018-10-02T06:23:30.389Z,4.67
2018-10-02T06:25:58.907Z,9.00
2018-10-02T06:28:27.808Z,8.48
2018-10-02T06:33:48.303Z,5.12
2018-10-02T06:39:10.733Z,5.30
2018-10-02T06:41:39.244Z,10.28
2018-10-02T06:44:08.078Z,9.88
2018-10-02T06:46:55.614Z,11.57
2018-10-02T06:49:24.038Z,8.48
2018-10-02T06:51:52.896Z,8.10
2018-10-02T06:54:21.560Z,6.00
2018-10-02T06:57:02.220Z,8.38
2018-10-02T06:59:30.751Z,9.23
2018-10-02T07:04:54.549Z,7.87
2018-10-02T07:07:23.769Z,7.20
2018-10-02T07:09:52.909Z,8.03
2018-10-02T07:12:21.232Z,8.58
2018-10-02T07:14:50.082Z,7.97
2018-10-02T07:17:18.909Z,8.88
2018-10-02T07:25:34.317Z,6.15
2018-10-02T07:28:02.961Z,8.73
2018-10-02T07:30:54.232Z,7.47
2018-10-02T07:33:22.854Z,9.58
2018-10-02T07:35:57.222Z,6.85
2018-10-02T07:38:26.139Z,8.48
2018-10-02T07:40:54.984Z,6.83
2018-10-02T07:43:23.746Z,6.85
2018-10-02T07:45:52.472Z,8.58
2018-10-02T07:48:21.291Z,7.50
2018-10-02T07:50:49.876Z,8.45
2018-10-02T07:53:18.652Z,6.60
2018-10-02T07:55:47.291Z,7.55
2018-10-02T07:58:16.313Z,4.97
2018-10-02T08:00:44.738Z,8.58
2018-10-02T08:03:13.389Z,5.45
2018-10-02T08:05:42.071Z,8.38
2018-10-02T08:08:10.897Z,7.58
2018-10-02T08:10:39.553Z,11.10
2018-10-02T08:13:07.811Z,9.43
2018-10-02T08:15:36.626Z,8.78
2018-10-02T08:18:05.959Z,7.22
2018-10-02T08:20:34.788Z,12.18
2018-10-02T08:23:03.505Z,14.20
2018-10-02T08:25:32.024Z,9.83
2018-10-02T08:28:00.493Z,12.03
2018-10-02T08:30:29.159Z,13.90
2018-10-02T08:32:57.945Z,11.48
2018-10-02T08:35:26.943Z,20.17
2018-10-02T08:37:56.072Z,21.25
2018-10-02T08:40:24.707Z,16.40
2018-10-02T08:42:53.333Z,15.68
2018-10-02T08:48:15.588Z,14.13
2018-10-02T08:50:44.291Z,19.37
2018-10-02T08:53:12.999Z,14.87
2018-10-02T08:55:41.922Z,13.88
2018-10-02T08:58:10.740Z,15.28
2018-10-02T09:00:39.458Z,11.20
2018-10-02T09:03:08.408Z,12.90
2018-10-02T09:05:37.120Z,19.23
2018-10-02T09:08:05.786Z,19.75
2018-10-02T09:13:27.891Z,14.63
2018-10-02T09:16:03.033Z,15.75
2018-10-02T09:21:25.946Z,20.48
2018-10-02T09:26:47.885Z,16.30
2018-10-02T09:29:16.520Z,16.25
2018-10-02T09:31:50.532Z,14.83
2018-10-02T09:34:24.364Z,19.67
2018-10-02T09:36:59.152Z,15.08
2018-10-02T09:39:33.702Z,20.48
2018-10-02T09:42:08.424Z,11.25
2018-10-02T09:44:59.108Z,15.28
2018-10-02T09:47:27.429Z,14.70
2018-10-02T09:49:56.209Z,13.43
2018-10-02T09:52:24.872Z,11.40
2018-10-02T09:54:53.501Z,13.85
2018-10-02T09:57:22.304Z,19.82
2018-10-02T09:59:52.284Z,10.68
2018-10-02T10:02:26.128Z,14.75
2018-10-02T10:05:03.716Z,14.63
2018-10-02T10:07:31.961Z,15.13
2018-10-02T10:10:00.523Z,15.50
2018-10-02T10:12:29.142Z,20.02
2018-10-02T10:14:57.844Z,17.98
2018-10-02T10:17:26.852Z,14.05
2018-10-02T10:19:55.173Z,10.98
2018-10-02T10:22:23.922Z,12.60
2018-10-02T10:24:52.550Z,10.40
2018-10-02T10:30:13.965Z,9.98
2018-10-02T10:32:42.557Z,6.33
2018-10-02T10:35:11.252Z,7.80
2018-10-02T10:37:40.125Z,11.75
2018-10-02T10:40:08.533Z,12.75
2018-10-02T10:42:37.229Z,8.48
2018-10-02T10:45:06.160Z,11.57
2018-10-02T10:47:35.112Z,9.85
2018-10-02T10:50:03.423Z,9.40
2018-10-02T10:52:32.181Z,12.88
2018-10-02T10:55:28.897Z,9.70
2018-10-02T10:57:57.718Z,8.78
2018-10-02T11:00:26.449Z,7.95
2018-10-02T11:02:55.127Z,10.45
2018-10-02T11:05:23.796Z,14.30
2018-10-02T11:07:53.525Z,8.05
2018-10-02T11:10:38.188Z,11.78
2018-10-02T11:13:06.973Z,10.35
2018-10-02T11:15:35.617Z,11.20
2018-10-02T11:20:58.004Z,8.23
2018-10-02T11:26:26.758Z,8.40
2018-10-02T11:29:02.461Z,12.30
2018-10-02T11:31:31.776Z,11.60
2018-10-02T11:34:00.633Z,11.25
2018-10-02T11:36:29.115Z,11.30
2018-10-02T11:38:57.844Z,9.40
2018-10-02T11:41:26.492Z,10.88
2018-10-02T11:43:55.506Z,7.22
2018-10-02T11:46:25.845Z,8.43
2018-10-02T11:48:54.184Z,10.15
2018-10-02T11:51:22.784Z,6.55
2018-10-02T11:53:51.420Z,6.83
2018-10-02T11:56:20.259Z,10.35
2018-10-02T11:58:48.823Z,17.15
2018-10-02T12:01:17.511Z,13.78
2018-10-02T12:04:01.422Z,11.90
2018-10-02T12:06:29.754Z,9.63
2018-10-02T12:08:58.493Z,6.70
2018-10-02T12:11:27.137Z,12.20
2018-10-02T12:13:57.298Z,9.80
2018-10-02T12:16:25.576Z,10.93
2018-10-02T12:18:59.608Z,9.83
2018-10-02T12:21:28.921Z,7.67
2018-10-02T12:24:03.372Z,11.95
2018-10-02T12:26:43.849Z,9.08
2018-10-02T12:29:12.528Z,16.17
2018-10-02T12:34:35.662Z,15.23
2018-10-02T12:42:51.830Z,6.72
2018-10-02T12:45:20.504Z,8.98
2018-10-02T12:47:49.264Z,9.83
2018-10-02T12:50:17.925Z,11.83
2018-10-02T12:55:56.637Z,11.60
2018-10-02T12:58:25.171Z,12.05
2018-10-02T13:00:53.986Z,11.83
2018-10-02T13:03:22.799Z,11.78
2018-10-02T13:05:51.510Z,7.95
2018-10-02T13:08:20.469Z,9.28
2018-10-02T13:13:45.556Z,10.40
2018-10-02T13:16:14.334Z,10.48
2018-10-02T13:18:42.874Z,14.23
2018-10-02T13:21:11.597Z,9.83
2018-10-02T13:23:40.365Z,14.78
2018-10-02T13:26:10.172Z,10.60
2018-10-02T13:28:39.125Z,11.57
2018-10-02T13:31:07.718Z,11.85
2018-10-02T13:33:36.327Z,13.15
2018-10-02T13:36:04.936Z,16.00
2018-10-02T13:41:31.569Z,12.10
2018-10-02T13:44:12.919Z,11.28
2018-10-02T13:46:42.568Z,13.25
2018-10-02T13:49:12.235Z,14.83
2018-10-02T13:51:40.949Z,12.75
2018-10-02T13:54:10.950Z,8.05
2018-10-02T13:56:40.417Z,13.95
2018-10-02T14:02:03.085Z,16.05
2018-10-02T14:10:20.192Z,12.05
2018-10-02T14:12:54.925Z,12.73
2018-10-02T14:21:10.281Z,19.90
2018-10-02T14:23:42.014Z,12.30
2018-10-02T14:29:04.431Z,13.53
2018-10-02T14:31:36.077Z,12.78
2018-10-02T14:36:57.265Z,15.18
2018-10-02T14:39:27.061Z,11.43
2018-10-02T14:44:49.057Z,10.70
2018-10-02T14:47:17.744Z,11.33
2018-10-02T14:52:40.989Z,12.37
2018-10-02T14:58:10.872Z,12.53
2018-10-02T15:03:34.935Z,13.60
2018-10-02T15:06:04.702Z,11.35
2018-10-02T15:08:35.156Z,11.40
2018-10-02T15:11:05.426Z,13.65
2018-10-02T15:13:33.734Z,9.53
2018-10-02T15:18:55.943Z,10.63
2018-10-02T15:21:24.559Z,11.68
2018-10-02T15:26:47.525Z,10.38
2018-10-02T15:29:19.461Z,14.55
2018-10-02T15:37:34.855Z,13.18
2018-10-02T15:42:58.084Z,9.53
2018-10-02T15:48:26.667Z,13.03
2018-10-02T15:50:55.897Z,11.75
2018-10-02T15:53:24.481Z,14.35
2018-10-02T15:55:57.653Z,11.00
2018-10-02T15:58:26.818Z,12.78
2018-10-02T16:00:57.784Z,16.55
2018-10-02T16:03:35.743Z,14.65
2018-10-02T16:06:14.241Z,17.30
2018-10-02T16:09:18.945Z,22.82
2018-10-02T16:14:44.011Z,13.72
2018-10-02T16:23:10.800Z,14.83
2018-10-02T16:31:29.252Z,12.65
2018-10-02T16:33:59.260Z,13.55
2018-10-02T16:36:27.980Z,15.20
2018-10-02T16:38:56.440Z,16.12
2018-10-02T16:41:25.384Z,13.62
2018-10-02T16:43:53.813Z,15.85
2018-10-02T16:46:23.561Z,18.98
2018-10-02T16:54:20.491Z,12.28
2018-10-02T16:56:49.114Z,15.93
2018-10-02T16:59:17.740Z,16.32
2018-10-02T17:01:49.538Z,15.30
2018-10-02T17:04:18.297Z,20.57
2018-10-02T17:06:47.340Z,23.57
2018-10-02T17:09:16.223Z,164.95
2018-10-02T17:11:47.740Z,384.70
2018-10-02T17:14:22.996Z,234.22
2018-10-02T17:16:54.124Z,113.32
2018-10-02T17:22:32.332Z,91.20
2018-10-02T17:25:00.620Z,29.00
2018-10-02T17:27:29.104Z,227.78
2018-10-02T17:29:57.727Z,66.17
2018-10-02T17:32:26.524Z,44.13
2018-10-02T17:35:07.184Z,31.57
2018-10-02T17:37:38.824Z,31.05
2018-10-02T17:40:07.489Z,54.45
2018-10-02T17:42:36.012Z,31.97
2018-10-02T17:45:09.954Z,27.15
2018-10-02T17:47:39.173Z,41.90
2018-10-02T17:50:08.805Z,41.95
2018-10-02T17:52:38.632Z,23.52
2018-10-02T17:55:10.195Z,20.88
2018-10-02T17:57:38.815Z,21.20
2018-10-02T18:00:07.477Z,30.45
2018-10-02T18:02:36.100Z,26.37
2018-10-02T18:05:04.625Z,21.75
2018-10-02T18:07:33.308Z,19.42
2018-10-02T18:10:01.957Z,22.35
2018-10-02T18:12:32.209Z,22.87
2018-10-02T18:15:06.040Z,19.45
2018-10-02T18:23:25.583Z,16.67
2018-10-02T18:31:40.978Z,25.35
2018-10-02T18:34:09.596Z,23.20
2018-10-02T18:42:25.932Z,20.20
2018-10-02T18:50:40.742Z,21.60
2018-10-02T18:53:11.516Z,27.48
2018-10-02T18:58:34.306Z,19.52
2018-10-02T19:01:03.444Z,19.75
2018-10-02T19:03:32.075Z,23.83
2018-10-02T19:06:01.180Z,22.62
2018-10-02T19:08:40.536Z,25.68
2018-10-02T19:24:11.681Z,16.60
2018-10-02T19:26:40.385Z,17.50
2018-10-02T19:35:08.171Z,16.00
2018-10-02T19:37:42.373Z,17.95
2018-10-02T19:40:12.915Z,18.80
2018-10-02T19:42:41.417Z,17.50
2018-10-02T19:47:50.478Z,20.82
2018-10-02T19:50:20.048Z,19.75
2018-10-02T19:52:55.320Z,25.62
2018-10-02T20:08:47.233Z,14.95
2018-10-02T20:11:17.037Z,17.52
2018-10-02T20:16:39.126Z,16.30
2018-10-02T20:19:19.653Z,21.62
2018-10-02T20:22:08.985Z,18.37
2018-10-02T20:30:12.597Z,15.85
2018-10-02T20:32:46.205Z,22.65
2018-10-02T20:49:21.041Z,17.90
2018-10-02T20:51:49.719Z,15.68
2018-10-02T20:54:23.743Z,13.55
2018-10-02T20:56:58.556Z,17.37
2018-10-02T20:59:28.372Z,17.17
2018-10-02T21:01:57.589Z,16.17
2018-10-02T21:04:26.042Z,17.57
2018-10-02T21:06:55.745Z,17.48
2018-10-02T21:09:27.678Z,15.00
2018-10-02T21:12:09.559Z,12.45
2018-10-02T21:14:43.433Z,15.15
2018-10-02T21:17:12.602Z,15.00
2018-10-02T21:19:47.685Z,13.48
2018-10-02T21:22:16.816Z,17.60
2018-10-02T21:24:45.480Z,16.82
2018-10-02T21:27:14.218Z,21.70
2018-10-02T21:29:45.803Z,19.20
2018-10-02T21:32:14.268Z,17.30
2018-10-02T21:34:42.953Z,15.85
2018-10-02T21:40:10.568Z,21.57
2018-10-02T21:45:48.243Z,20.57
2018-10-02T21:51:10.357Z,16.55
2018-10-02T21:53:39.157Z,16.35
2018-10-02T21:56:17.228Z,15.30
2018-10-02T22:03:53.689Z,16.55
2018-10-02T22:06:36.809Z,16.37
2018-10-02T22:23:55.198Z,18.20
2018-10-02T22:26:23.417Z,15.30
2018-10-02T22:45:44.657Z,15.10
2018-10-02T22:51:28.708Z,12.07
2018-10-02T22:54:10.562Z,15.80
2018-10-02T23:05:19.058Z,16.62
2018-10-02T23:10:57.896Z,14.75
2018-10-02T23:13:26.006Z,16.25
2018-10-02T23:27:43.217Z,13.85
2018-10-02T23:30:14.664Z,18.62
2018-10-02T23:35:47.301Z,13.18
2018-10-02T23:41:09.705Z,12.65
2018-10-02T23:43:38.312Z,18.80
2018-10-02T23:46:07.491Z,14.83
2018-10-02T23:57:16.766Z,17.73
2018-10-02T23:59:52.053Z,14.98
